sensor_id;sensor_type;location;lat;lon;timestamp;P1;durP1;ratioP1;P2;durP2;ratioP2
29384;SDS011;16367;48.736;9.218;2024-03-17T00:01:27;13.45;;;6.35;;
29384;SDS011;16367;48.736;9.218;2024-03-17T00:03:29;13.27;;;6.38;;
29384;SDS011;16367;48.736;9.218;2024-03-17T00:05:31;16.10;;;6.88;;
29384;SDS011;16367;48.736;9.218;2024-03-17T00:07:33;13.60;;;6.38;;
29384;SDS011;16367;48.736;9.218;2024-03-17T00:09:34;11.90;;;5.78;;
29384;SDS011;16367;48.736;9.218;2024-03-17T00:11:36;15.00;;;7.25;;
29384;SDS011;16367;48.736;9.218;2024-03-17T00:13:37;14.73;;;6.47;;
29384;SDS011;16367;48.736;9.218;2024-03-17T00:15:39;13.95;;;6.20;;
29384;SDS011;16367;48.736;9.218;2024-03-17T00:17:40;15.82;;;7.18;;
29384;SDS011;16367;48.736;9.218;2024-03-17T00:19:41;14.88;;;6.90;;
29384;SDS011;16367;48.736;9.218;2024-03-17T00:21:44;16.45;;;7.47;;
29384;SDS011;16367;48.736;9.218;2024-03-17T00:23:46;15.95;;;7.03;;
29384;SDS011;16367;48.736;9.218;2024-03-17T00:25:47;15.23;;;7.45;;
29384;SDS011;16367;48.736;9.218;2024-03-17T00:27:51;16.33;;;7.03;;
29384;SDS011;16367;48.736;9.218;2024-03-17T00:29:55;17.20;;;7.85;;
29384;SDS011;16367;48.736;9.218;2024-03-17T00:31:57;19.15;;;8.15;;
29384;SDS011;16367;48.736;9.218;2024-03-17T00:33:59;18.60;;;8.02;;
29384;SDS011;16367;48.736;9.218;2024-03-17T00:36:01;19.88;;;8.75;;
29384;SDS011;16367;48.736;9.218;2024-03-17T00:38:03;21.13;;;8.73;;
29384;SDS011;16367;48.736;9.218;2024-03-17T00:40:10;18.35;;;8.40;;
29384;SDS011;16367;48.736;9.218;2024-03-17T00:42:12;16.95;;;7.97;;
29384;SDS011;16367;48.736;9.218;2024-03-17T00:44:14;16.67;;;7.05;;
29384;SDS011;16367;48.736;9.218;2024-03-17T00:46:15;18.08;;;8.23;;
29384;SDS011;16367;48.736;9.218;2024-03-17T00:48:18;15.20;;;8.25;;
29384;SDS011;16367;48.736;9.218;2024-03-17T00:50:19;15.23;;;7.55;;
29384;SDS011;16367;48.736;9.218;2024-03-17T00:52:21;17.17;;;7.20;;
29384;SDS011;16367;48.736;9.218;2024-03-17T00:54:23;15.60;;;7.13;;
29384;SDS011;16367;48.736;9.218;2024-03-17T00:56:25;15.70;;;7.28;;
29384;SDS011;16367;48.736;9.218;2024-03-17T00:58:26;15.32;;;7.75;;
29384;SDS011;16367;48.736;9.218;2024-03-17T01:00:29;14.82;;;7.78;;
29384;SDS011;16367;48.736;9.218;2024-03-17T01:02:30;16.92;;;7.57;;
29384;SDS011;16367;48.736;9.218;2024-03-17T01:04:32;14.80;;;7.30;;
29384;SDS011;16367;48.736;9.218;2024-03-17T01:06:34;15.95;;;7.82;;
29384;SDS011;16367;48.736;9.218;2024-03-17T01:08:36;17.13;;;8.55;;
29384;SDS011;16367;48.736;9.218;2024-03-17T01:10:39;20.20;;;9.07;;
29384;SDS011;16367;48.736;9.218;2024-03-17T01:12:41;18.25;;;8.75;;
29384;SDS011;16367;48.736;9.218;2024-03-17T01:14:42;17.70;;;7.90;;
29384;SDS011;16367;48.736;9.218;2024-03-17T01:16:44;15.80;;;8.07;;
29384;SDS011;16367;48.736;9.218;2024-03-17T01:18:44;16.58;;;8.05;;
29384;SDS011;16367;48.736;9.218;2024-03-17T01:20:46;18.60;;;9.60;;
29384;SDS011;16367;48.736;9.218;2024-03-17T01:22:47;19.88;;;8.18;;
29384;SDS011;16367;48.736;9.218;2024-03-17T01:24:49;16.42;;;8.82;;
29384;SDS011;16367;48.736;9.218;2024-03-17T01:26:51;17.02;;;8.10;;
29384;SDS011;16367;48.736;9.218;2024-03-17T01:28:53;18.17;;;9.02;;
29384;SDS011;16367;48.736;9.218;2024-03-17T01:30:54;17.77;;;8.82;;
29384;SDS011;16367;48.736;9.218;2024-03-17T01:32:56;17.83;;;8.88;;
29384;SDS011;16367;48.736;9.218;2024-03-17T01:34:57;19.58;;;9.13;;
29384;SDS011;16367;48.736;9.218;2024-03-17T01:36:58;17.92;;;7.93;;
29384;SDS011;16367;48.736;9.218;2024-03-17T01:38:59;20.55;;;9.23;;
29384;SDS011;16367;48.736;9.218;2024-03-17T01:41:02;19.23;;;9.50;;
29384;SDS011;16367;48.736;9.218;2024-03-17T01:43:06;19.55;;;9.77;;
29384;SDS011;16367;48.736;9.218;2024-03-17T01:45:24;18.38;;;9.85;;
29384;SDS011;16367;48.736;9.218;2024-03-17T01:47:28;19.50;;;9.20;;
29384;SDS011;16367;48.736;9.218;2024-03-17T01:49:29;19.85;;;10.20;;
29384;SDS011;16367;48.736;9.218;2024-03-17T01:51:31;22.40;;;10.25;;
29384;SDS011;16367;48.736;9.218;2024-03-17T01:53:33;19.40;;;9.73;;
29384;SDS011;16367;48.736;9.218;2024-03-17T01:55:34;21.15;;;10.25;;
29384;SDS011;16367;48.736;9.218;2024-03-17T01:57:38;18.77;;;9.93;;
29384;SDS011;16367;48.736;9.218;2024-03-17T01:59:41;20.40;;;10.05;;
29384;SDS011;16367;48.736;9.218;2024-03-17T02:01:44;21.90;;;10.48;;
29384;SDS011;16367;48.736;9.218;2024-03-17T02:03:45;19.05;;;9.75;;
29384;SDS011;16367;48.736;9.218;2024-03-17T02:05:46;23.15;;;11.57;;
29384;SDS011;16367;48.736;9.218;2024-03-17T02:07:48;21.27;;;11.18;;
29384;SDS011;16367;48.736;9.218;2024-03-17T02:09:50;20.15;;;10.75;;
29384;SDS011;16367;48.736;9.218;2024-03-17T02:11:51;23.60;;;10.57;;
29384;SDS011;16367;48.736;9.218;2024-03-17T02:13:54;22.35;;;10.80;;
29384;SDS011;16367;48.736;9.218;2024-03-17T02:15:57;20.25;;;11.25;;
29384;SDS011;16367;48.736;9.218;2024-03-17T02:17:59;22.73;;;11.32;;
29384;SDS011;16367;48.736;9.218;2024-03-17T02:20:00;22.88;;;10.93;;
29384;SDS011;16367;48.736;9.218;2024-03-17T02:22:03;20.02;;;10.50;;
29384;SDS011;16367;48.736;9.218;2024-03-17T02:24:07;22.80;;;10.60;;
29384;SDS011;16367;48.736;9.218;2024-03-17T02:26:09;20.05;;;11.00;;
29384;SDS011;16367;48.736;9.218;2024-03-17T02:28:10;19.10;;;10.50;;
29384;SDS011;16367;48.736;9.218;2024-03-17T02:30:12;21.23;;;10.55;;
29384;SDS011;16367;48.736;9.218;2024-03-17T02:32:13;20.17;;;9.77;;
29384;SDS011;16367;48.736;9.218;2024-03-17T02:34:15;20.02;;;10.32;;
29384;SDS011;16367;48.736;9.218;2024-03-17T02:36:16;19.55;;;9.57;;
29384;SDS011;16367;48.736;9.218;2024-03-17T02:38:18;21.42;;;10.13;;
29384;SDS011;16367;48.736;9.218;2024-03-17T02:40:41;20.02;;;8.90;;
29384;SDS011;16367;48.736;9.218;2024-03-17T02:42:43;20.73;;;10.23;;
29384;SDS011;16367;48.736;9.218;2024-03-17T02:44:45;20.10;;;10.02;;
29384;SDS011;16367;48.736;9.218;2024-03-17T02:46:47;17.52;;;9.73;;
29384;SDS011;16367;48.736;9.218;2024-03-17T02:48:49;22.00;;;11.45;;
29384;SDS011;16367;48.736;9.218;2024-03-17T02:50:52;23.10;;;11.32;;
29384;SDS011;16367;48.736;9.218;2024-03-17T02:52:54;20.73;;;9.98;;
29384;SDS011;16367;48.736;9.218;2024-03-17T02:54:56;23.17;;;10.07;;
29384;SDS011;16367;48.736;9.218;2024-03-17T02:56:58;22.60;;;11.52;;
29384;SDS011;16367;48.736;9.218;2024-03-17T02:59:00;21.30;;;10.77;;
29384;SDS011;16367;48.736;9.218;2024-03-17T03:01:02;19.45;;;9.75;;
29384;SDS011;16367;48.736;9.218;2024-03-17T03:03:04;24.48;;;10.32;;
29384;SDS011;16367;48.736;9.218;2024-03-17T03:05:06;22.73;;;10.50;;
29384;SDS011;16367;48.736;9.218;2024-03-17T03:07:08;21.88;;;10.65;;
29384;SDS011;16367;48.736;9.218;2024-03-17T03:09:10;21.15;;;10.20;;
29384;SDS011;16367;48.736;9.218;2024-03-17T03:11:15;22.55;;;11.23;;
29384;SDS011;16367;48.736;9.218;2024-03-17T03:13:19;22.95;;;11.25;;
29384;SDS011;16367;48.736;9.218;2024-03-17T03:15:20;21.50;;;10.88;;
29384;SDS011;16367;48.736;9.218;2024-03-17T03:17:22;20.38;;;10.57;;
29384;SDS011;16367;48.736;9.218;2024-03-17T03:19:25;20.42;;;10.65;;
29384;SDS011;16367;48.736;9.218;2024-03-17T03:21:27;22.85;;;10.85;;
29384;SDS011;16367;48.736;9.218;2024-03-17T03:23:28;24.60;;;10.65;;
29384;SDS011;16367;48.736;9.218;2024-03-17T03:25:30;22.67;;;10.80;;
29384;SDS011;16367;48.736;9.218;2024-03-17T03:27:31;21.27;;;10.90;;
29384;SDS011;16367;48.736;9.218;2024-03-17T03:29:35;19.52;;;9.82;;
29384;SDS011;16367;48.736;9.218;2024-03-17T03:31:38;22.27;;;10.20;;
29384;SDS011;16367;48.736;9.218;2024-03-17T03:33:39;21.45;;;10.85;;
29384;SDS011;16367;48.736;9.218;2024-03-17T03:35:41;22.88;;;10.30;;
29384;SDS011;16367;48.736;9.218;2024-03-17T03:37:42;21.80;;;11.70;;
29384;SDS011;16367;48.736;9.218;2024-03-17T03:39:44;22.45;;;10.95;;
29384;SDS011;16367;48.736;9.218;2024-03-17T03:41:45;22.00;;;10.88;;
29384;SDS011;16367;48.736;9.218;2024-03-17T03:43:47;22.88;;;10.55;;
29384;SDS011;16367;48.736;9.218;2024-03-17T03:45:50;25.00;;;11.02;;
29384;SDS011;16367;48.736;9.218;2024-03-17T03:47:51;22.27;;;11.82;;
29384;SDS011;16367;48.736;9.218;2024-03-17T03:49:53;24.17;;;11.93;;
29384;SDS011;16367;48.736;9.218;2024-03-17T03:51:57;24.98;;;11.55;;
29384;SDS011;16367;48.736;9.218;2024-03-17T03:53:59;22.73;;;10.95;;
29384;SDS011;16367;48.736;9.218;2024-03-17T03:56:02;23.25;;;11.93;;
29384;SDS011;16367;48.736;9.218;2024-03-17T03:58:06;25.38;;;12.25;;
29384;SDS011;16367;48.736;9.218;2024-03-17T04:00:09;26.73;;;12.25;;
29384;SDS011;16367;48.736;9.218;2024-03-17T04:02:14;23.85;;;11.35;;
29384;SDS011;16367;48.736;9.218;2024-03-17T04:04:16;20.60;;;10.82;;
29384;SDS011;16367;48.736;9.218;2024-03-17T04:06:18;20.40;;;10.38;;
29384;SDS011;16367;48.736;9.218;2024-03-17T04:08:19;23.70;;;10.77;;
29384;SDS011;16367;48.736;9.218;2024-03-17T04:10:24;20.42;;;10.43;;
29384;SDS011;16367;48.736;9.218;2024-03-17T04:12:27;22.58;;;12.43;;
29384;SDS011;16367;48.736;9.218;2024-03-17T04:14:31;24.90;;;11.65;;
29384;SDS011;16367;48.736;9.218;2024-03-17T04:16:33;21.23;;;10.27;;
29384;SDS011;16367;48.736;9.218;2024-03-17T04:18:36;20.88;;;8.93;;
29384;SDS011;16367;48.736;9.218;2024-03-17T04:20:39;19.20;;;10.27;;
29384;SDS011;16367;48.736;9.218;2024-03-17T04:22:41;17.33;;;8.77;;
29384;SDS011;16367;48.736;9.218;2024-03-17T04:24:44;17.90;;;9.27;;
29384;SDS011;16367;48.736;9.218;2024-03-17T04:26:47;15.73;;;8.88;;
29384;SDS011;16367;48.736;9.218;2024-03-17T04:28:48;28.33;;;8.50;;
29384;SDS011;16367;48.736;9.218;2024-03-17T04:30:49;21.50;;;9.60;;
29384;SDS011;16367;48.736;9.218;2024-03-17T04:32:51;21.50;;;8.82;;
29384;SDS011;16367;48.736;9.218;2024-03-17T04:34:54;18.88;;;9.00;;
29384;SDS011;16367;48.736;9.218;2024-03-17T04:36:55;20.88;;;9.23;;
29384;SDS011;16367;48.736;9.218;2024-03-17T04:38:57;19.13;;;9.10;;
29384;SDS011;16367;48.736;9.218;2024-03-17T04:40:59;18.10;;;8.82;;
29384;SDS011;16367;48.736;9.218;2024-03-17T04:43:05;15.77;;;7.72;;
29384;SDS011;16367;48.736;9.218;2024-03-17T04:45:07;14.85;;;7.30;;
29384;SDS011;16367;48.736;9.218;2024-03-17T04:47:09;16.52;;;7.72;;
29384;SDS011;16367;48.736;9.218;2024-03-17T04:49:12;14.77;;;7.28;;
29384;SDS011;16367;48.736;9.218;2024-03-17T04:51:16;18.10;;;7.53;;
29384;SDS011;16367;48.736;9.218;2024-03-17T04:53:18;19.55;;;8.55;;
29384;SDS011;16367;48.736;9.218;2024-03-17T04:55:20;18.23;;;9.15;;
29384;SDS011;16367;48.736;9.218;2024-03-17T04:57:22;17.63;;;8.02;;
29384;SDS011;16367;48.736;9.218;2024-03-17T04:59:24;18.65;;;8.20;;
29384;SDS011;16367;48.736;9.218;2024-03-17T05:01:25;17.63;;;8.77;;
29384;SDS011;16367;48.736;9.218;2024-03-17T05:03:27;19.27;;;8.23;;
29384;SDS011;16367;48.736;9.218;2024-03-17T05:05:29;19.30;;;9.00;;
29384;SDS011;16367;48.736;9.218;2024-03-17T05:07:32;16.63;;;7.88;;
29384;SDS011;16367;48.736;9.218;2024-03-17T05:09:33;17.13;;;7.75;;
29384;SDS011;16367;48.736;9.218;2024-03-17T05:11:35;17.02;;;8.73;;
29384;SDS011;16367;48.736;9.218;2024-03-17T05:13:38;19.15;;;9.07;;
29384;SDS011;16367;48.736;9.218;2024-03-17T05:15:39;18.33;;;8.38;;
29384;SDS011;16367;48.736;9.218;2024-03-17T05:17:41;19.50;;;9.18;;
29384;SDS011;16367;48.736;9.218;2024-03-17T05:19:43;17.80;;;8.75;;
29384;SDS011;16367;48.736;9.218;2024-03-17T05:21:45;16.98;;;8.30;;
29384;SDS011;16367;48.736;9.218;2024-03-17T05:23:47;17.77;;;8.88;;
29384;SDS011;16367;48.736;9.218;2024-03-17T05:25:50;22.13;;;8.57;;
29384;SDS011;16367;48.736;9.218;2024-03-17T05:27:51;16.98;;;8.55;;
29384;SDS011;16367;48.736;9.218;2024-03-17T05:29:53;17.65;;;8.30;;
29384;SDS011;16367;48.736;9.218;2024-03-17T05:31:55;18.55;;;8.40;;
29384;SDS011;16367;48.736;9.218;2024-03-17T05:33:57;15.18;;;7.70;;
29384;SDS011;16367;48.736;9.218;2024-03-17T05:36:00;18.10;;;8.85;;
29384;SDS011;16367;48.736;9.218;2024-03-17T05:38:05;19.27;;;9.00;;
29384;SDS011;16367;48.736;9.218;2024-03-17T05:40:12;18.23;;;8.20;;
29384;SDS011;16367;48.736;9.218;2024-03-17T05:42:14;16.58;;;8.50;;
29384;SDS011;16367;48.736;9.218;2024-03-17T05:44:16;20.25;;;9.00;;
29384;SDS011;16367;48.736;9.218;2024-03-17T05:46:18;21.45;;;9.43;;
29384;SDS011;16367;48.736;9.218;2024-03-17T05:48:20;19.30;;;8.98;;
29384;SDS011;16367;48.736;9.218;2024-03-17T05:50:22;21.20;;;8.70;;
29384;SDS011;16367;48.736;9.218;2024-03-17T05:52:24;18.85;;;8.65;;
29384;SDS011;16367;48.736;9.218;2024-03-17T05:54:26;16.55;;;7.85;;
29384;SDS011;16367;48.736;9.218;2024-03-17T05:56:28;20.45;;;8.57;;
29384;SDS011;16367;48.736;9.218;2024-03-17T05:58:30;18.45;;;8.57;;
29384;SDS011;16367;48.736;9.218;2024-03-17T06:00:32;17.58;;;8.82;;
29384;SDS011;16367;48.736;9.218;2024-03-17T06:02:34;19.20;;;8.77;;
29384;SDS011;16367;48.736;9.218;2024-03-17T06:04:35;14.57;;;7.90;;
29384;SDS011;16367;48.736;9.218;2024-03-17T06:06:38;17.20;;;8.43;;
29384;SDS011;16367;48.736;9.218;2024-03-17T06:08:40;14.73;;;7.25;;
29384;SDS011;16367;48.736;9.218;2024-03-17T06:10:42;18.55;;;7.20;;
29384;SDS011;16367;48.736;9.218;2024-03-17T06:12:45;15.65;;;7.18;;
29384;SDS011;16367;48.736;9.218;2024-03-17T06:14:47;13.93;;;6.95;;
29384;SDS011;16367;48.736;9.218;2024-03-17T06:16:49;14.73;;;6.78;;
29384;SDS011;16367;48.736;9.218;2024-03-17T06:18:51;18.98;;;7.85;;
29384;SDS011;16367;48.736;9.218;2024-03-17T06:20:53;14.35;;;7.28;;
29384;SDS011;16367;48.736;9.218;2024-03-17T06:22:58;16.20;;;7.97;;
29384;SDS011;16367;48.736;9.218;2024-03-17T06:25:00;14.52;;;7.35;;
29384;SDS011;16367;48.736;9.218;2024-03-17T06:27:02;16.73;;;8.23;;
29384;SDS011;16367;48.736;9.218;2024-03-17T06:29:05;18.23;;;8.23;;
29384;SDS011;16367;48.736;9.218;2024-03-17T06:31:07;17.75;;;8.13;;
29384;SDS011;16367;48.736;9.218;2024-03-17T06:33:11;17.10;;;9.65;;
29384;SDS011;16367;48.736;9.218;2024-03-17T06:35:13;16.45;;;8.57;;
29384;SDS011;16367;48.736;9.218;2024-03-17T06:37:16;16.27;;;8.20;;
29384;SDS011;16367;48.736;9.218;2024-03-17T06:39:17;13.55;;;7.97;;
29384;SDS011;16367;48.736;9.218;2024-03-17T06:41:21;17.42;;;8.35;;
29384;SDS011;16367;48.736;9.218;2024-03-17T06:43:23;14.30;;;7.57;;
29384;SDS011;16367;48.736;9.218;2024-03-17T06:45:26;14.63;;;7.90;;
29384;SDS011;16367;48.736;9.218;2024-03-17T06:47:27;16.13;;;8.25;;
29384;SDS011;16367;48.736;9.218;2024-03-17T06:49:29;16.27;;;7.78;;
29384;SDS011;16367;48.736;9.218;2024-03-17T06:51:31;18.90;;;8.38;;
29384;SDS011;16367;48.736;9.218;2024-03-17T06:53:33;19.67;;;7.93;;
29384;SDS011;16367;48.736;9.218;2024-03-17T06:55:34;15.35;;;8.63;;
29384;SDS011;16367;48.736;9.218;2024-03-17T06:57:35;16.00;;;8.93;;
29384;SDS011;16367;48.736;9.218;2024-03-17T06:59:37;16.50;;;8.25;;
29384;SDS011;16367;48.736;9.218;2024-03-17T07:01:40;14.95;;;8.48;;
29384;SDS011;16367;48.736;9.218;2024-03-17T07:03:41;13.27;;;7.82;;
29384;SDS011;16367;48.736;9.218;2024-03-17T07:05:47;14.82;;;8.23;;
29384;SDS011;16367;48.736;9.218;2024-03-17T07:07:51;15.52;;;8.13;;
29384;SDS011;16367;48.736;9.218;2024-03-17T07:09:53;14.70;;;8.05;;
29384;SDS011;16367;48.736;9.218;2024-03-17T07:11:55;15.63;;;8.13;;
29384;SDS011;16367;48.736;9.218;2024-03-17T07:13:57;14.60;;;7.35;;
29384;SDS011;16367;48.736;9.218;2024-03-17T07:15:59;13.90;;;7.32;;
29384;SDS011;16367;48.736;9.218;2024-03-17T07:18:03;12.63;;;7.05;;
29384;SDS011;16367;48.736;9.218;2024-03-17T07:20:06;12.50;;;6.50;;
29384;SDS011;16367;48.736;9.218;2024-03-17T07:22:09;10.93;;;6.22;;
29384;SDS011;16367;48.736;9.218;2024-03-17T07:24:10;10.63;;;5.85;;
29384;SDS011;16367;48.736;9.218;2024-03-17T07:26:12;10.60;;;5.45;;
29384;SDS011;16367;48.736;9.218;2024-03-17T07:28:15;12.80;;;5.97;;
29384;SDS011;16367;48.736;9.218;2024-03-17T07:30:16;13.63;;;5.55;;
29384;SDS011;16367;48.736;9.218;2024-03-17T07:32:18;13.45;;;6.00;;
29384;SDS011;16367;48.736;9.218;2024-03-17T07:34:22;12.50;;;6.30;;
29384;SDS011;16367;48.736;9.218;2024-03-17T07:36:23;10.18;;;5.70;;
29384;SDS011;16367;48.736;9.218;2024-03-17T07:38:25;10.35;;;5.65;;
29384;SDS011;16367;48.736;9.218;2024-03-17T07:40:28;10.63;;;5.47;;
29384;SDS011;16367;48.736;9.218;2024-03-17T07:42:31;9.70;;;5.53;;
29384;SDS011;16367;48.736;9.218;2024-03-17T07:44:34;11.02;;;6.20;;
29384;SDS011;16367;48.736;9.218;2024-03-17T07:46:36;10.18;;;5.63;;
29384;SDS011;16367;48.736;9.218;2024-03-17T07:48:38;10.65;;;6.07;;
29384;SDS011;16367;48.736;9.218;2024-03-17T07:50:42;11.13;;;5.60;;
29384;SDS011;16367;48.736;9.218;2024-03-17T07:52:44;16.15;;;7.65;;
29384;SDS011;16367;48.736;9.218;2024-03-17T07:54:45;13.50;;;7.35;;
29384;SDS011;16367;48.736;9.218;2024-03-17T07:56:47;13.52;;;7.72;;
29384;SDS011;16367;48.736;9.218;2024-03-17T07:58:49;12.73;;;7.13;;
29384;SDS011;16367;48.736;9.218;2024-03-17T08:00:51;12.77;;;6.93;;
29384;SDS011;16367;48.736;9.218;2024-03-17T08:02:53;11.27;;;6.22;;
29384;SDS011;16367;48.736;9.218;2024-03-17T08:04:54;10.05;;;5.78;;
29384;SDS011;16367;48.736;9.218;2024-03-17T08:06:58;10.27;;;5.85;;
29384;SDS011;16367;48.736;9.218;2024-03-17T08:08:59;9.57;;;5.78;;
29384;SDS011;16367;48.736;9.218;2024-03-17T08:11:00;10.10;;;5.47;;
29384;SDS011;16367;48.736;9.218;2024-03-17T08:13:03;11.70;;;5.47;;
29384;SDS011;16367;48.736;9.218;2024-03-17T08:15:06;13.63;;;5.90;;
29384;SDS011;16367;48.736;9.218;2024-03-17T08:17:09;11.88;;;5.38;;
29384;SDS011;16367;48.736;9.218;2024-03-17T08:19:10;9.57;;;4.97;;
29384;SDS011;16367;48.736;9.218;2024-03-17T08:21:12;8.82;;;4.80;;
29384;SDS011;16367;48.736;9.218;2024-03-17T08:23:14;8.38;;;4.50;;
29384;SDS011;16367;48.736;9.218;2024-03-17T08:25:16;8.40;;;5.13;;
29384;SDS011;16367;48.736;9.218;2024-03-17T08:27:18;8.80;;;4.18;;
29384;SDS011;16367;48.736;9.218;2024-03-17T08:29:19;8.40;;;4.85;;
29384;SDS011;16367;48.736;9.218;2024-03-17T08:31:21;8.50;;;4.15;;
29384;SDS011;16367;48.736;9.218;2024-03-17T08:33:22;8.65;;;4.40;;
29384;SDS011;16367;48.736;9.218;2024-03-17T08:35:24;8.20;;;4.10;;
29384;SDS011;16367;48.736;9.218;2024-03-17T08:37:26;9.48;;;4.30;;
29384;SDS011;16367;48.736;9.218;2024-03-17T08:39:29;7.85;;;3.90;;
29384;SDS011;16367;48.736;9.218;2024-03-17T08:41:31;7.20;;;3.72;;
29384;SDS011;16367;48.736;9.218;2024-03-17T08:43:33;8.70;;;3.65;;
29384;SDS011;16367;48.736;9.218;2024-03-17T08:45:36;7.07;;;3.58;;
29384;SDS011;16367;48.736;9.218;2024-03-17T08:47:38;8.73;;;3.50;;
29384;SDS011;16367;48.736;9.218;2024-03-17T08:49:39;7.55;;;3.67;;
29384;SDS011;16367;48.736;9.218;2024-03-17T08:51:41;8.55;;;3.60;;
29384;SDS011;16367;48.736;9.218;2024-03-17T08:53:42;6.68;;;3.28;;
29384;SDS011;16367;48.736;9.218;2024-03-17T08:55:45;8.40;;;3.10;;
29384;SDS011;16367;48.736;9.218;2024-03-17T08:57:46;6.63;;;2.85;;
29384;SDS011;16367;48.736;9.218;2024-03-17T08:59:48;6.88;;;3.03;;
29384;SDS011;16367;48.736;9.218;2024-03-17T09:01:52;6.53;;;3.40;;
29384;SDS011;16367;48.736;9.218;2024-03-17T09:03:54;7.75;;;3.75;;
29384;SDS011;16367;48.736;9.218;2024-03-17T09:05:56;8.05;;;3.50;;
29384;SDS011;16367;48.736;9.218;2024-03-17T09:07:57;7.22;;;3.20;;
29384;SDS011;16367;48.736;9.218;2024-03-17T09:09:59;6.60;;;2.85;;
29384;SDS011;16367;48.736;9.218;2024-03-17T09:12:02;5.38;;;2.30;;
29384;SDS011;16367;48.736;9.218;2024-03-17T09:14:04;10.10;;;3.10;;
29384;SDS011;16367;48.736;9.218;2024-03-17T09:16:06;6.22;;;2.65;;
29384;SDS011;16367;48.736;9.218;2024-03-17T09:18:11;6.93;;;2.67;;
29384;SDS011;16367;48.736;9.218;2024-03-17T09:20:13;5.43;;;2.28;;
29384;SDS011;16367;48.736;9.218;2024-03-17T09:22:15;7.65;;;2.92;;
29384;SDS011;16367;48.736;9.218;2024-03-17T09:24:17;5.75;;;3.03;;
29384;SDS011;16367;48.736;9.218;2024-03-17T09:26:19;5.88;;;2.63;;
29384;SDS011;16367;48.736;9.218;2024-03-17T09:28:22;6.57;;;2.90;;
29384;SDS011;16367;48.736;9.218;2024-03-17T09:30:23;5.70;;;2.60;;
29384;SDS011;16367;48.736;9.218;2024-03-17T09:32:25;7.13;;;2.40;;
29384;SDS011;16367;48.736;9.218;2024-03-17T09:34:27;6.53;;;2.72;;
29384;SDS011;16367;48.736;9.218;2024-03-17T09:36:28;9.55;;;3.33;;
29384;SDS011;16367;48.736;9.218;2024-03-17T09:38:31;7.35;;;2.90;;
29384;SDS011;16367;48.736;9.218;2024-03-17T09:40:33;6.18;;;3.05;;
29384;SDS011;16367;48.736;9.218;2024-03-17T09:42:35;9.45;;;4.18;;
29384;SDS011;16367;48.736;9.218;2024-03-17T09:44:39;9.80;;;4.18;;
29384;SDS011;16367;48.736;9.218;2024-03-17T09:46:41;8.98;;;3.53;;
29384;SDS011;16367;48.736;9.218;2024-03-17T09:48:43;8.77;;;3.35;;
29384;SDS011;16367;48.736;9.218;2024-03-17T09:50:49;7.53;;;3.05;;
29384;SDS011;16367;48.736;9.218;2024-03-17T09:52:53;8.35;;;3.08;;
29384;SDS011;16367;48.736;9.218;2024-03-17T09:54:56;5.57;;;2.70;;
29384;SDS011;16367;48.736;9.218;2024-03-17T09:57:01;5.78;;;3.13;;
29384;SDS011;16367;48.736;9.218;2024-03-17T09:59:07;5.72;;;2.15;;
29384;SDS011;16367;48.736;9.218;2024-03-17T10:01:11;5.60;;;2.03;;
29384;SDS011;16367;48.736;9.218;2024-03-17T10:03:15;7.35;;;2.28;;
29384;SDS011;16367;48.736;9.218;2024-03-17T10:05:41;4.97;;;1.92;;
29384;SDS011;16367;48.736;9.218;2024-03-17T10:07:44;4.57;;;2.05;;
29384;SDS011;16367;48.736;9.218;2024-03-17T10:09:46;5.18;;;2.10;;
29384;SDS011;16367;48.736;9.218;2024-03-17T10:11:48;4.95;;;2.10;;
29384;SDS011;16367;48.736;9.218;2024-03-17T10:13:58;5.93;;;2.40;;
29384;SDS011;16367;48.736;9.218;2024-03-17T10:16:01;6.10;;;2.22;;
29384;SDS011;16367;48.736;9.218;2024-03-17T10:18:06;5.13;;;2.08;;
29384;SDS011;16367;48.736;9.218;2024-03-17T10:20:23;6.35;;;2.42;;
29384;SDS011;16367;48.736;9.218;2024-03-17T10:22:26;5.80;;;2.33;;
29384;SDS011;16367;48.736;9.218;2024-03-17T10:24:27;8.23;;;2.95;;
29384;SDS011;16367;48.736;9.218;2024-03-17T10:26:30;5.10;;;2.13;;
29384;SDS011;16367;48.736;9.218;2024-03-17T10:28:30;6.53;;;2.38;;
29384;SDS011;16367;48.736;9.218;2024-03-17T10:30:33;6.82;;;2.40;;
29384;SDS011;16367;48.736;9.218;2024-03-17T10:32:37;6.85;;;2.40;;
29384;SDS011;16367;48.736;9.218;2024-03-17T10:34:39;7.18;;;2.35;;
29384;SDS011;16367;48.736;9.218;2024-03-17T10:36:41;7.57;;;2.53;;
29384;SDS011;16367;48.736;9.218;2024-03-17T10:38:45;5.90;;;2.35;;
29384;SDS011;16367;48.736;9.218;2024-03-17T10:40:53;6.60;;;2.60;;
29384;SDS011;16367;48.736;9.218;2024-03-17T10:42:55;4.90;;;2.17;;
29384;SDS011;16367;48.736;9.218;2024-03-17T10:44:58;5.55;;;2.42;;
29384;SDS011;16367;48.736;9.218;2024-03-17T10:46:59;5.50;;;2.40;;
29384;SDS011;16367;48.736;9.218;2024-03-17T10:49:02;4.70;;;1.83;;
29384;SDS011;16367;48.736;9.218;2024-03-17T10:51:05;7.28;;;2.42;;
29384;SDS011;16367;48.736;9.218;2024-03-17T10:53:16;7.63;;;2.22;;
29384;SDS011;16367;48.736;9.218;2024-03-17T10:55:26;6.63;;;2.40;;
29384;SDS011;16367;48.736;9.218;2024-03-17T10:57:31;6.00;;;2.30;;
29384;SDS011;16367;48.736;9.218;2024-03-17T10:59:40;6.40;;;2.00;;
29384;SDS011;16367;48.736;9.218;2024-03-17T11:01:43;6.63;;;2.53;;
29384;SDS011;16367;48.736;9.218;2024-03-17T11:03:45;4.78;;;2.33;;
29384;SDS011;16367;48.736;9.218;2024-03-17T11:05:50;6.05;;;2.50;;
29384;SDS011;16367;48.736;9.218;2024-03-17T11:07:55;6.13;;;2.60;;
29384;SDS011;16367;48.736;9.218;2024-03-17T11:10:02;5.20;;;2.15;;
29384;SDS011;16367;48.736;9.218;2024-03-17T11:12:05;5.15;;;1.95;;
29384;SDS011;16367;48.736;9.218;2024-03-17T11:14:43;4.65;;;1.90;;
29384;SDS011;16367;48.736;9.218;2024-03-17T11:16:45;4.57;;;1.70;;
29384;SDS011;16367;48.736;9.218;2024-03-17T11:18:48;5.78;;;2.10;;
29384;SDS011;16367;48.736;9.218;2024-03-17T11:20:55;5.05;;;1.80;;
29384;SDS011;16367;48.736;9.218;2024-03-17T11:23:00;4.43;;;1.92;;
29384;SDS011;16367;48.736;9.218;2024-03-17T11:27:40;6.68;;;1.95;;
29384;SDS011;16367;48.736;9.218;2024-03-17T11:29:42;5.53;;;2.00;;
29384;SDS011;16367;48.736;9.218;2024-03-17T11:31:44;6.88;;;1.70;;
29384;SDS011;16367;48.736;9.218;2024-03-17T11:33:46;6.03;;;2.08;;
29384;SDS011;16367;48.736;9.218;2024-03-17T11:35:50;5.75;;;1.80;;
29384;SDS011;16367;48.736;9.218;2024-03-17T11:37:52;5.00;;;1.90;;
29384;SDS011;16367;48.736;9.218;2024-03-17T11:39:55;5.15;;;1.90;;
29384;SDS011;16367;48.736;9.218;2024-03-17T11:42:04;6.38;;;2.10;;
29384;SDS011;16367;48.736;9.218;2024-03-17T11:44:14;4.30;;;2.00;;
29384;SDS011;16367;48.736;9.218;2024-03-17T11:46:18;5.28;;;1.92;;
29384;SDS011;16367;48.736;9.218;2024-03-17T11:48:19;4.43;;;1.85;;
29384;SDS011;16367;48.736;9.218;2024-03-17T11:50:22;4.35;;;2.03;;
29384;SDS011;16367;48.736;9.218;2024-03-17T11:52:24;4.85;;;2.03;;
29384;SDS011;16367;48.736;9.218;2024-03-17T11:54:27;4.75;;;2.03;;
29384;SDS011;16367;48.736;9.218;2024-03-17T11:56:32;6.72;;;2.08;;
29384;SDS011;16367;48.736;9.218;2024-03-17T11:58:34;5.20;;;1.80;;
29384;SDS011;16367;48.736;9.218;2024-03-17T12:00:37;4.20;;;1.75;;
29384;SDS011;16367;48.736;9.218;2024-03-17T12:02:39;5.60;;;2.10;;
29384;SDS011;16367;48.736;9.218;2024-03-17T12:04:42;4.35;;;1.42;;
29384;SDS011;16367;48.736;9.218;2024-03-17T12:06:44;6.75;;;2.63;;
29384;SDS011;16367;48.736;9.218;2024-03-17T12:08:46;5.20;;;1.95;;
29384;SDS011;16367;48.736;9.218;2024-03-17T12:10:48;5.60;;;1.80;;
29384;SDS011;16367;48.736;9.218;2024-03-17T12:12:50;4.72;;;2.05;;